Hamnavoe — VSTY7 — position and weather

sailwx.info

Track history (hours):
 
Tides and Currents Weather Stations Pressure Air Temp Water Temp Dewpoint Dewpoint Depression Visibility Wind Speed Wind Dir Waves Ship Positions

Hamnavoe

Operator: NorthLink Orkey & Shetland Ferries Ltd

Last reported at 2016-Jun-27 04:33 UTC. Time now 2016-Jun-27 06:01 UTC.
Position N 58°58' W 003°18'.

Length 112 m; draft 4.2 m.

Type: Ship. MMSI: 235449000.

Date/timePositionNaut miles runAvg speedWind from/ knotsBaromVisibWave heightAir tempDewpointWater temp
2016-Jun-27 04:33N 58°58' W 003°18'0 0.0
2016-Jun-27 03:33N 58°58' W 003°18'0 0.0
2016-Jun-27 02:34N 58°58' W 003°18'0 0.0
2016-Jun-27 01:33N 58°58' W 003°18'0 0.0
2016-Jun-27 00:33N 58°58' W 003°18'0 0.0
2016-Jun-26 23:32N 58°58' W 003°18'0 0.0
2016-Jun-26 22:33N 58°58' W 003°18'0 0.0
2016-Jun-26 21:33N 58°58' W 003°18'0 0.0
2016-Jun-26 20:33N 58°58' W 003°18'0 0.0
2016-Jun-26 19:33N 58°58' W 003°18'1212.3
2016-Jun-26 18:33N 58°47' W 003°30'11 9.2
2016-Jun-26 17:24N 58°37' W 003°32'1113.2
2016-Jun-26 16:33N 58°48' W 003°29'1211.7
2016-Jun-26 15:33N 58°58' W 003°18'0 0.0
2016-Jun-26 14:33N 58°58' W 003°18'0 0.0
2016-Jun-26 13:33N 58°58' W 003°18'0 0.0
2016-Jun-26 12:33N 58°58' W 003°18'1413.7
2016-Jun-26 11:33N 58°46' W 003°31'9 9.3
2016-Jun-26 10:33N 58°37' W 003°32'0 0.0
2016-Jun-26 09:33N 58°37' W 003°32'1413.8
2016-Jun-26 08:33N 58°50' W 003°29'9 9.3
2016-Jun-26 07:33N 58°58' W 003°18'0 0.0
2016-Jun-26 06:33N 58°58' W 003°18'0 0.0
2016-Jun-26 05:33N 58°58' W 003°18'0 0.0
2016-Jun-26 04:33N 58°58' W 003°18'0 0.0
2016-Jun-26 03:33N 58°58' W 003°18'0 0.0
2016-Jun-26 02:33N 58°58' W 003°18'0 0.0
2016-Jun-26 01:33N 58°58' W 003°18'0 0.0
2016-Jun-26 00:33N 58°58' W 003°18'0 0.0
2016-Jun-25 23:33N 58°58' W 003°18'0 0.0
2016-Jun-25 22:33N 58°58' W 003°18'0 0.0
2016-Jun-25 21:33N 58°58' W 003°18'0 0.0
2016-Jun-25 20:33N 58°58' W 003°18'0 0.0
2016-Jun-25 19:33N 58°58' W 003°18'1312.9
2016-Jun-25 18:33N 58°46' W 003°29'10 9.8
2016-Jun-25 17:33N 58°37' W 003°32'1211.7
2016-Jun-25 16:33N 58°48' W 003°30'1111.5
2016-Jun-25 15:33N 58°58' W 003°18'0 0.0
2016-Jun-25 14:33N 58°58' W 003°18'1 1.1
2016-Jun-25 13:33N 58°57' W 003°19'1716.8
2016-Jun-25 12:33N 58°41' W 003°31'5 4.7
2016-Jun-25 11:33N 58°37' W 003°32'1716.5
2016-Jun-25 10:33N 58°53' W 003°28'7 7.1
2016-Jun-25 09:34N 58°58' W 003°18'8 8.1
2016-Jun-25 08:33N 58°52' W 003°28'1514.8
2016-Jun-25 07:32N 58°37' W 003°32'6 6.0
2016-Jun-25 06:33N 58°42' W 003°30'1616.3
2016-Jun-25 05:33N 58°57' W 003°18'0 0.4
2016-Jun-25 04:33N 58°58' W 003°18'0 0.0
2016-Jun-25 03:33N 58°58' W 003°18'0 0.0
2016-Jun-25 02:33N 58°58' W 003°18'0 0.0
2016-Jun-25 01:33N 58°58' W 003°18'0 0.0
2016-Jun-25 00:33N 58°58' W 003°18'0 0.0
2016-Jun-24 23:33N 58°58' W 003°18'0 0.0
2016-Jun-24 22:33N 58°58' W 003°18'0 0.0
2016-Jun-24 21:33N 58°58' W 003°18'0 0.0
2016-Jun-24 20:33N 58°58' W 003°18'0 0.0
2016-Jun-24 19:33N 58°58' W 003°18'1211.7
2016-Jun-24 18:33N 58°48' W 003°29'1111.1
2016-Jun-24 17:33N 58°37' W 003°32'1111.1
2016-Jun-24 16:33N 58°48' W 003°30'1211.9
2016-Jun-24 15:33N 58°58' W 003°18'0 0.0
2016-Jun-24 14:33N 58°58' W 003°18'1 0.7
2016-Jun-24 13:33N 58°57' W 003°17'1515.4
2016-Jun-24 12:33N 58°43' W 003°28'7 6.6
2016-Jun-24 11:33N 58°37' W 003°32'1717.2
2016-Jun-24 10:33N 58°54' W 003°27'6 6.3
2016-Jun-24 09:33N 58°58' W 003°18'7 7.3
2016-Jun-24 08:33N 58°53' W 003°28'1616.2
2016-Jun-24 07:34N 58°37' W 003°32'22 7.4
2016-Jun-24 04:31N 58°58' W 003°18'0 0.0
2016-Jun-24 03:31N 58°58' W 003°18'0 0.0
2016-Jun-24 02:31N 58°58' W 003°18'0 0.0
2016-Jun-24 01:31N 58°58' W 003°18'0 0.0
2016-Jun-24 00:31N 58°58' W 003°18'0 0.0
2016-Jun-23 23:31N 58°58' W 003°18'0 0.0
2016-Jun-23 22:31N 58°58' W 003°18'0 0.0
2016-Jun-23 21:31N 58°58' W 003°18'0 0.0
2016-Jun-23 20:28N 58°58' W 003°18'0 0.0
2016-Jun-23 19:33N 58°58' W 003°18'1111.5
2016-Jun-23 18:33N 58°48' W 003°29'1111.4
2016-Jun-23 17:33N 58°37' W 003°32'1111.2
2016-Jun-23 16:33N 58°48' W 003°29'1211.7
2016-Jun-23 15:33N 58°58' W 003°18'0 0.0
2016-Jun-23 14:33N 58°58' W 003°18'0 0.4
2016-Jun-23 13:34N 58°57' W 003°18'1615.5
2016-Jun-23 12:33N 58°43' W 003°30'7 6.5
2016-Jun-23 11:32N 58°37' W 003°32'1515.4
2016-Jun-23 10:33N 58°52' W 003°29'8 8.3
2016-Jun-23 09:33N 58°58' W 003°18'7 7.2
2016-Jun-23 08:33N 58°53' W 003°28'1616.3
2016-Jun-23 07:33N 58°37' W 003°32'2211.2
2016-Jun-23 05:33N 58°58' W 003°18'0 0.2
2016-Jun-23 04:33N 58°58' W 003°18'0 0.0
2016-Jun-23 03:33N 58°58' W 003°18'0 0.0
2016-Jun-23 02:33N 58°58' W 003°18'0 0.0
2016-Jun-23 01:30N 58°58' W 003°18'0 0.0
2016-Jun-23 00:33N 58°58' W 003°18'0 0.0
2016-Jun-22 23:33N 58°58' W 003°18'0 0.0
2016-Jun-22 22:33N 58°58' W 003°18'0 0.0
2016-Jun-22 21:33N 58°58' W 003°18'0 0.0
2016-Jun-22 20:27N 58°58' W 003°18'0 0.0
2016-Jun-22 19:33N 58°58' W 003°18'1313.0
2016-Jun-22 18:33N 58°46' W 003°30'10 9.6
2016-Jun-22 17:32N 58°37' W 003°32'1111.5
2016-Jun-22 16:33N 58°48' W 003°29'1211.6
2016-Jun-22 15:33N 58°58' W 003°18'0 0.0
2016-Jun-22 14:33N 58°58' W 003°18'0 0.2
2016-Jun-22 13:33N 58°58' W 003°18'1515.3
2016-Jun-22 12:33N 58°44' W 003°30'7 7.1
2016-Jun-22 11:33N 58°37' W 003°32'1514.5
2016-Jun-22 10:33N 58°51' W 003°28'9 8.4
2016-Jun-22 09:31N 58°58' W 003°18'7 7.1
2016-Jun-22 08:33N 58°53' W 003°27'1716.7
2016-Jun-22 07:33N 58°37' W 003°32'7 6.5
2016-Jun-22 06:33N 58°43' W 003°30'1615.9
2016-Jun-22 05:33N 58°58' W 003°18'0 0.2
2016-Jun-22 04:29N 58°58' W 003°18'0 0.0
2016-Jun-22 03:29N 58°58' W 003°18'0 0.0
2016-Jun-22 02:17N 58°58' W 003°18'0 0.0
2016-Jun-22 01:32N 58°58' W 003°18'0 0.0
2016-Jun-22 00:32N 58°58' W 003°18'0 0.0
2016-Jun-21 23:32N 58°58' W 003°18'0 0.0
2016-Jun-21 22:32N 58°58' W 003°18'0 0.0
2016-Jun-21 21:32N 58°58' W 003°18'0 0.0
2016-Jun-21 20:32N 58°58' W 003°18'0 0.0
2016-Jun-21 19:33N 58°58' W 003°18'1212.5
2016-Jun-21 18:33N 58°47' W 003°29'1010.4
2016-Jun-21 17:34N 58°37' W 003°32'1312.9
2016-Jun-21 16:33N 58°49' W 003°29'1010.1
2016-Jun-21 15:34N 58°58' W 003°18'0 0.0
2016-Jun-21 14:33N 58°58' W 003°18'1 0.6
2016-Jun-21 13:33N 58°57' W 003°17'1616.1
2016-Jun-21 12:34N 58°43' W 003°30'6 6.0
2016-Jun-21 11:33N 58°37' W 003°32'1616.2
2016-Jun-21 10:33N 58°53' W 003°28'7 7.5
2016-Jun-21 09:33N 58°58' W 003°18'8 8.1
2016-Jun-21 08:33N 58°52' W 003°28'1515.3
2016-Jun-21 07:33N 58°37' W 003°32'6 6.1
2016-Jun-21 06:33N 58°43' W 003°30'17 8.3
2016-Jun-21 04:33N 58°58' W 003°18'0 0.0
2016-Jun-21 03:33N 58°58' W 003°18'0 0.0
2016-Jun-21 02:33N 58°58' W 003°18'0 0.0
2016-Jun-21 01:33N 58°58' W 003°18'0 0.0
2016-Jun-21 00:33N 58°58' W 003°18'0 0.0
2016-Jun-20 23:33N 58°58' W 003°18'0 0.0
2016-Jun-20 22:33N 58°58' W 003°18'0 0.0
2016-Jun-20 21:30N 58°58' W 003°18'0 0.0
2016-Jun-20 20:33N 58°58' W 003°18'0 0.0
2016-Jun-20 19:33N 58°58' W 003°18'1312.5
2016-Jun-20 18:33N 58°47' W 003°30'1010.3
2016-Jun-20 17:33N 58°37' W 003°32'1111.0
2016-Jun-20 16:33N 58°48' W 003°29'1211.8
2016-Jun-20 15:33N 58°58' W 003°18'0 0.0
2016-Jun-20 14:33N 58°58' W 003°18'0 0.0
2016-Jun-20 13:33N 58°58' W 003°18'1515.2
2016-Jun-20 12:34N 58°44' W 003°29'7 7.4
2016-Jun-20 11:33N 58°37' W 003°32'1716.5
2016-Jun-20 10:33N 58°53' W 003°27'7 6.9
2016-Jun-20 09:33N 58°58' W 003°18'8 7.7
2016-Jun-20 08:33N 58°52' W 003°28'1615.8
2016-Jun-20 07:33N 58°37' W 003°32'5 4.6
2016-Jun-20 06:33N 58°41' W 003°31'1716.9
2016-Jun-20 05:33N 58°57' W 003°18'1 1.0
2016-Jun-20 04:33N 58°58' W 003°18'0 0.0
2016-Jun-20 03:33N 58°58' W 003°18'0 0.0
2016-Jun-20 02:33N 58°58' W 003°18'0 0.0
2016-Jun-20 00:09N 58°58' W 003°18'0 0.0
2016-Jun-19 23:33N 58°58' W 003°18'0 0.0
2016-Jun-19 22:33N 58°58' W 003°18'0 0.0
2016-Jun-19 21:27N 58°58' W 003°18'0 0.0
2016-Jun-19 20:27N 58°58' W 003°18'0 0.0
2016-Jun-19 19:33N 58°58' W 003°18'1111.1
2016-Jun-19 18:33N 58°48' W 003°29'1211.8
2016-Jun-19 17:34N 58°37' W 003°32'1111.3
2016-Jun-19 16:33N 58°48' W 003°29'1111.4
2016-Jun-19 15:33N 58°58' W 003°18'0 0.0
2016-Jun-19 14:33N 58°58' W 003°18'0 0.0
2016-Jun-19 13:33N 58°58' W 003°18'0 0.0
2016-Jun-19 12:33N 58°58' W 003°18'1111.4
2016-Jun-19 11:33N 58°48' W 003°29'1111.4
2016-Jun-19 10:33N 58°37' W 003°32'0 0.0
2016-Jun-19 09:33N 58°37' W 003°32'1616.4
2016-Jun-19 08:33N 58°53' W 003°28'7 6.8
2016-Jun-19 07:30N 58°58' W 003°18'0 0.0
2016-Jun-19 06:33N 58°58' W 003°18'0 0.0
2016-Jun-19 05:30N 58°58' W 003°18'0 0.0
2016-Jun-19 04:33N 58°58' W 003°18'0 0.0
2016-Jun-19 03:30N 58°58' W 003°18'0 0.0
2016-Jun-19 02:30N 58°58' W 003°18'0 0.0
2016-Jun-19 01:30N 58°58' W 003°18'0 0.0
2016-Jun-19 00:33N 58°58' W 003°18'0 0.0
2016-Jun-18 23:30N 58°58' W 003°18'0 0.0
2016-Jun-18 22:30N 58°58' W 003°18'0 0.0
2016-Jun-18 21:30N 58°58' W 003°18'0 0.0
2016-Jun-18 20:30N 58°58' W 003°18'0 0.0
2016-Jun-18 19:31N 58°58' W 003°18'1010.8
2016-Jun-18 18:33N 58°49' W 003°28'1312.6
2016-Jun-18 17:33N 58°37' W 003°32'10 9.6
2016-Jun-18 16:33N 58°46' W 003°29'1313.1
2016-Jun-18 15:33N 58°58' W 003°18'0 0.0
2016-Jun-18 14:33N 58°58' W 003°18'0 0.5
2016-Jun-18 13:33N 58°57' W 003°18'1616.2
2016-Jun-18 12:33N 58°43' W 003°31'6 6.0
2016-Jun-18 11:33N 58°37' W 003°32'1515.0
2016-Jun-18 10:33N 58°52' W 003°28'8 8.2
2016-Jun-18 09:33N 58°58' W 003°18'7 7.0
2016-Jun-18 08:33N 58°53' W 003°27'1616.5
2016-Jun-18 07:33N 58°37' W 003°32'6 6.3
2016-Jun-18 06:33N 58°43' W 003°30'1616.0
2016-Jun-18 05:33N 58°58' W 003°18'0 0.3
2016-Jun-18 04:29N 58°58' W 003°18'0 0.0
2016-Jun-18 03:29N 58°58' W 003°18'0 0.0
2016-Jun-18 02:29N 58°58' W 003°18'0 0.0
2016-Jun-18 01:29N 58°58' W 003°18'0 0.0
2016-Jun-18 00:29N 58°58' W 003°18'0 0.0
2016-Jun-17 23:29N 58°58' W 003°18'0 0.0
2016-Jun-17 22:29N 58°58' W 003°18'0 0.0
2016-Jun-17 21:29N 58°58' W 003°18'0 0.0
2016-Jun-17 20:33N 58°58' W 003°18'0 0.0
2016-Jun-17 19:32N 58°58' W 003°18'1312.8
2016-Jun-17 18:33N 58°47' W 003°29'1010.2
2016-Jun-17 17:33N 58°37' W 003°32'1010.5
2016-Jun-17 16:33N 58°47' W 003°29'1212.4
2016-Jun-17 15:33N 58°58' W 003°18'0 0.0
2016-Jun-17 14:34N 58°58' W 003°18'1 1.0
2016-Jun-17 13:34N 58°57' W 003°18'1616.3
2016-Jun-17 12:33N 58°42' W 003°31'5 5.2
2016-Jun-17 11:33N 58°37' W 003°32'1413.8
2016-Jun-17 10:33N 58°50' W 003°29'9 9.4
2016-Jun-17 09:33N 58°58' W 003°18'7 7.0
2016-Jun-17 08:33N 58°53' W 003°27'1616.5
2016-Jun-17 07:33N 58°37' W 003°32'5 4.8
2016-Jun-17 06:33N 58°41' W 003°31'1716.8
2016-Jun-17 05:33N 58°57' W 003°18'  
Track history (hours):
 
Tides and Currents Weather Stations Pressure Air Temp Water Temp Dewpoint Dewpoint Depression Visibility Wind Speed Wind Dir Waves Ship Positions

Hamnavoe

Operator: NorthLink Orkey & Shetland Ferries Ltd

Last reported at 2016-Jun-27 04:33 UTC. Time now 2016-Jun-27 06:01 UTC.
Position N 58°58' W 003°18'.

Length 112 m; draft 4.2 m.

Type: Ship. MMSI: 235449000.

Date/timePositionNaut miles runAvg speedWind from/ knotsBaromVisibWave heightAir tempDewpointWater temp
2016-Jun-27 04:33N 58°58' W 003°18'0 0.0
2016-Jun-27 03:33N 58°58' W 003°18'0 0.0
2016-Jun-27 02:34N 58°58' W 003°18'0 0.0
2016-Jun-27 01:33N 58°58' W 003°18'0 0.0
2016-Jun-27 00:33N 58°58' W 003°18'0 0.0
2016-Jun-26 23:32N 58°58' W 003°18'0 0.0
2016-Jun-26 22:33N 58°58' W 003°18'0 0.0
2016-Jun-26 21:33N 58°58' W 003°18'0 0.0
2016-Jun-26 20:33N 58°58' W 003°18'0 0.0
2016-Jun-26 19:33N 58°58' W 003°18'1212.3
2016-Jun-26 18:33N 58°47' W 003°30'11 9.2
2016-Jun-26 17:24N 58°37' W 003°32'1113.2
2016-Jun-26 16:33N 58°48' W 003°29'1211.7
2016-Jun-26 15:33N 58°58' W 003°18'0 0.0
2016-Jun-26 14:33N 58°58' W 003°18'0 0.0
2016-Jun-26 13:33N 58°58' W 003°18'0 0.0
2016-Jun-26 12:33N 58°58' W 003°18'1413.7
2016-Jun-26 11:33N 58°46' W 003°31'9 9.3
2016-Jun-26 10:33N 58°37' W 003°32'0 0.0
2016-Jun-26 09:33N 58°37' W 003°32'1413.8
2016-Jun-26 08:33N 58°50' W 003°29'9 9.3
2016-Jun-26 07:33N 58°58' W 003°18'0 0.0
2016-Jun-26 06:33N 58°58' W 003°18'0 0.0
2016-Jun-26 05:33N 58°58' W 003°18'0 0.0
2016-Jun-26 04:33N 58°58' W 003°18'0 0.0
2016-Jun-26 03:33N 58°58' W 003°18'0 0.0
2016-Jun-26 02:33N 58°58' W 003°18'0 0.0
2016-Jun-26 01:33N 58°58' W 003°18'0 0.0
2016-Jun-26 00:33N 58°58' W 003°18'0 0.0
2016-Jun-25 23:33N 58°58' W 003°18'0 0.0
2016-Jun-25 22:33N 58°58' W 003°18'0 0.0
2016-Jun-25 21:33N 58°58' W 003°18'0 0.0
2016-Jun-25 20:33N 58°58' W 003°18'0 0.0
2016-Jun-25 19:33N 58°58' W 003°18'1312.9
2016-Jun-25 18:33N 58°46' W 003°29'10 9.8
2016-Jun-25 17:33N 58°37' W 003°32'1211.7
2016-Jun-25 16:33N 58°48' W 003°30'1111.5
2016-Jun-25 15:33N 58°58' W 003°18'0 0.0
2016-Jun-25 14:33N 58°58' W 003°18'1 1.1
2016-Jun-25 13:33N 58°57' W 003°19'1716.8
2016-Jun-25 12:33N 58°41' W 003°31'5 4.7
2016-Jun-25 11:33N 58°37' W 003°32'1716.5
2016-Jun-25 10:33N 58°53' W 003°28'7 7.1
2016-Jun-25 09:34N 58°58' W 003°18'8 8.1
2016-Jun-25 08:33N 58°52' W 003°28'1514.8
2016-Jun-25 07:32N 58°37' W 003°32'6 6.0
2016-Jun-25 06:33N 58°42' W 003°30'1616.3
2016-Jun-25 05:33N 58°57' W 003°18'0 0.4
2016-Jun-25 04:33N 58°58' W 003°18'0 0.0
2016-Jun-25 03:33N 58°58' W 003°18'0 0.0
2016-Jun-25 02:33N 58°58' W 003°18'0 0.0
2016-Jun-25 01:33N 58°58' W 003°18'0 0.0
2016-Jun-25 00:33N 58°58' W 003°18'0 0.0
2016-Jun-24 23:33N 58°58' W 003°18'0 0.0
2016-Jun-24 22:33N 58°58' W 003°18'0 0.0
2016-Jun-24 21:33N 58°58' W 003°18'0 0.0
2016-Jun-24 20:33N 58°58' W 003°18'0 0.0
2016-Jun-24 19:33N 58°58' W 003°18'1211.7
2016-Jun-24 18:33N 58°48' W 003°29'1111.1
2016-Jun-24 17:33N 58°37' W 003°32'1111.1
2016-Jun-24 16:33N 58°48' W 003°30'1211.9
2016-Jun-24 15:33N 58°58' W 003°18'0 0.0
2016-Jun-24 14:33N 58°58' W 003°18'1 0.7
2016-Jun-24 13:33N 58°57' W 003°17'1515.4
2016-Jun-24 12:33N 58°43' W 003°28'7 6.6
2016-Jun-24 11:33N 58°37' W 003°32'1717.2
2016-Jun-24 10:33N 58°54' W 003°27'6 6.3
2016-Jun-24 09:33N 58°58' W 003°18'7 7.3
2016-Jun-24 08:33N 58°53' W 003°28'1616.2
2016-Jun-24 07:34N 58°37' W 003°32'22 7.4
2016-Jun-24 04:31N 58°58' W 003°18'0 0.0
2016-Jun-24 03:31N 58°58' W 003°18'0 0.0
2016-Jun-24 02:31N 58°58' W 003°18'0 0.0
2016-Jun-24 01:31N 58°58' W 003°18'0 0.0
2016-Jun-24 00:31N 58°58' W 003°18'0 0.0
2016-Jun-23 23:31N 58°58' W 003°18'0 0.0
2016-Jun-23 22:31N 58°58' W 003°18'0 0.0
2016-Jun-23 21:31N 58°58' W 003°18'0 0.0
2016-Jun-23 20:28N 58°58' W 003°18'0 0.0
2016-Jun-23 19:33N 58°58' W 003°18'1111.5
2016-Jun-23 18:33N 58°48' W 003°29'1111.4
2016-Jun-23 17:33N 58°37' W 003°32'1111.2
2016-Jun-23 16:33N 58°48' W 003°29'1211.7
2016-Jun-23 15:33N 58°58' W 003°18'0 0.0
2016-Jun-23 14:33N 58°58' W 003°18'0 0.4
2016-Jun-23 13:34N 58°57' W 003°18'1615.5
2016-Jun-23 12:33N 58°43' W 003°30'7 6.5
2016-Jun-23 11:32N 58°37' W 003°32'1515.4
2016-Jun-23 10:33N 58°52' W 003°29'8 8.3
2016-Jun-23 09:33N 58°58' W 003°18'7 7.2
2016-Jun-23 08:33N 58°53' W 003°28'1616.3
2016-Jun-23 07:33N 58°37' W 003°32'2211.2
2016-Jun-23 05:33N 58°58' W 003°18'0 0.2
2016-Jun-23 04:33N 58°58' W 003°18'0 0.0
2016-Jun-23 03:33N 58°58' W 003°18'0 0.0
2016-Jun-23 02:33N 58°58' W 003°18'0 0.0
2016-Jun-23 01:30N 58°58' W 003°18'0 0.0
2016-Jun-23 00:33N 58°58' W 003°18'0 0.0
2016-Jun-22 23:33N 58°58' W 003°18'0 0.0
2016-Jun-22 22:33N 58°58' W 003°18'0 0.0
2016-Jun-22 21:33N 58°58' W 003°18'0 0.0
2016-Jun-22 20:27N 58°58' W 003°18'0 0.0
2016-Jun-22 19:33N 58°58' W 003°18'1313.0
2016-Jun-22 18:33N 58°46' W 003°30'10 9.6
2016-Jun-22 17:32N 58°37' W 003°32'1111.5
2016-Jun-22 16:33N 58°48' W 003°29'1211.6
2016-Jun-22 15:33N 58°58' W 003°18'0 0.0
2016-Jun-22 14:33N 58°58' W 003°18'0 0.2
2016-Jun-22 13:33N 58°58' W 003°18'1515.3
2016-Jun-22 12:33N 58°44' W 003°30'7 7.1
2016-Jun-22 11:33N 58°37' W 003°32'1514.5
2016-Jun-22 10:33N 58°51' W 003°28'9 8.4
2016-Jun-22 09:31N 58°58' W 003°18'7 7.1
2016-Jun-22 08:33N 58°53' W 003°27'1716.7
2016-Jun-22 07:33N 58°37' W 003°32'7 6.5
2016-Jun-22 06:33N 58°43' W 003°30'1615.9
2016-Jun-22 05:33N 58°58' W 003°18'0 0.2
2016-Jun-22 04:29N 58°58' W 003°18'0 0.0
2016-Jun-22 03:29N 58°58' W 003°18'0 0.0
2016-Jun-22 02:17N 58°58' W 003°18'0 0.0
2016-Jun-22 01:32N 58°58' W 003°18'0 0.0
2016-Jun-22 00:32N 58°58' W 003°18'0 0.0
2016-Jun-21 23:32N 58°58' W 003°18'0 0.0
2016-Jun-21 22:32N 58°58' W 003°18'0 0.0
2016-Jun-21 21:32N 58°58' W 003°18'0 0.0
2016-Jun-21 20:32N 58°58' W 003°18'0 0.0
2016-Jun-21 19:33N 58°58' W 003°18'1212.5
2016-Jun-21 18:33N 58°47' W 003°29'1010.4
2016-Jun-21 17:34N 58°37' W 003°32'1312.9
2016-Jun-21 16:33N 58°49' W 003°29'1010.1
2016-Jun-21 15:34N 58°58' W 003°18'0 0.0
2016-Jun-21 14:33N 58°58' W 003°18'1 0.6
2016-Jun-21 13:33N 58°57' W 003°17'1616.1
2016-Jun-21 12:34N 58°43' W 003°30'6 6.0
2016-Jun-21 11:33N 58°37' W 003°32'1616.2
2016-Jun-21 10:33N 58°53' W 003°28'7 7.5
2016-Jun-21 09:33N 58°58' W 003°18'8 8.1
2016-Jun-21 08:33N 58°52' W 003°28'1515.3
2016-Jun-21 07:33N 58°37' W 003°32'6 6.1
2016-Jun-21 06:33N 58°43' W 003°30'17 8.3
2016-Jun-21 04:33N 58°58' W 003°18'0 0.0
2016-Jun-21 03:33N 58°58' W 003°18'0 0.0
2016-Jun-21 02:33N 58°58' W 003°18'0 0.0
2016-Jun-21 01:33N 58°58' W 003°18'0 0.0
2016-Jun-21 00:33N 58°58' W 003°18'0 0.0
2016-Jun-20 23:33N 58°58' W 003°18'0 0.0
2016-Jun-20 22:33N 58°58' W 003°18'0 0.0
2016-Jun-20 21:30N 58°58' W 003°18'0 0.0
2016-Jun-20 20:33N 58°58' W 003°18'0 0.0
2016-Jun-20 19:33N 58°58' W 003°18'1312.5
2016-Jun-20 18:33N 58°47' W 003°30'1010.3
2016-Jun-20 17:33N 58°37' W 003°32'1111.0
2016-Jun-20 16:33N 58°48' W 003°29'1211.8
2016-Jun-20 15:33N 58°58' W 003°18'0 0.0
2016-Jun-20 14:33N 58°58' W 003°18'0 0.0
2016-Jun-20 13:33N 58°58' W 003°18'1515.2
2016-Jun-20 12:34N 58°44' W 003°29'7 7.4
2016-Jun-20 11:33N 58°37' W 003°32'1716.5
2016-Jun-20 10:33N 58°53' W 003°27'7 6.9
2016-Jun-20 09:33N 58°58' W 003°18'8 7.7
2016-Jun-20 08:33N 58°52' W 003°28'1615.8
2016-Jun-20 07:33N 58°37' W 003°32'5 4.6
2016-Jun-20 06:33N 58°41' W 003°31'1716.9
2016-Jun-20 05:33N 58°57' W 003°18'1 1.0
2016-Jun-20 04:33N 58°58' W 003°18'0 0.0
2016-Jun-20 03:33N 58°58' W 003°18'0 0.0
2016-Jun-20 02:33N 58°58' W 003°18'0 0.0
2016-Jun-20 00:09N 58°58' W 003°18'0 0.0
2016-Jun-19 23:33N 58°58' W 003°18'0 0.0
2016-Jun-19 22:33N 58°58' W 003°18'0 0.0
2016-Jun-19 21:27N 58°58' W 003°18'0 0.0
2016-Jun-19 20:27N 58°58' W 003°18'0 0.0
2016-Jun-19 19:33N 58°58' W 003°18'1111.1
2016-Jun-19 18:33N 58°48' W 003°29'1211.8
2016-Jun-19 17:34N 58°37' W 003°32'1111.3
2016-Jun-19 16:33N 58°48' W 003°29'1111.4
2016-Jun-19 15:33N 58°58' W 003°18'0 0.0
2016-Jun-19 14:33N 58°58' W 003°18'0 0.0
2016-Jun-19 13:33N 58°58' W 003°18'0 0.0
2016-Jun-19 12:33N 58°58' W 003°18'1111.4
2016-Jun-19 11:33N 58°48' W 003°29'1111.4
2016-Jun-19 10:33N 58°37' W 003°32'0 0.0
2016-Jun-19 09:33N 58°37' W 003°32'1616.4
2016-Jun-19 08:33N 58°53' W 003°28'7 6.8
2016-Jun-19 07:30N 58°58' W 003°18'0 0.0
2016-Jun-19 06:33N 58°58' W 003°18'0 0.0
2016-Jun-19 05:30N 58°58' W 003°18'0 0.0
2016-Jun-19 04:33N 58°58' W 003°18'0 0.0
2016-Jun-19 03:30N 58°58' W 003°18'0 0.0
2016-Jun-19 02:30N 58°58' W 003°18'0 0.0
2016-Jun-19 01:30N 58°58' W 003°18'0 0.0
2016-Jun-19 00:33N 58°58' W 003°18'0 0.0
2016-Jun-18 23:30N 58°58' W 003°18'0 0.0
2016-Jun-18 22:30N 58°58' W 003°18'0 0.0
2016-Jun-18 21:30N 58°58' W 003°18'0 0.0
2016-Jun-18 20:30N 58°58' W 003°18'0 0.0
2016-Jun-18 19:31N 58°58' W 003°18'1010.8
2016-Jun-18 18:33N 58°49' W 003°28'1312.6
2016-Jun-18 17:33N 58°37' W 003°32'10 9.6
2016-Jun-18 16:33N 58°46' W 003°29'1313.1
2016-Jun-18 15:33N 58°58' W 003°18'0 0.0
2016-Jun-18 14:33N 58°58' W 003°18'0 0.5
2016-Jun-18 13:33N 58°57' W 003°18'1616.2
2016-Jun-18 12:33N 58°43' W 003°31'6 6.0
2016-Jun-18 11:33N 58°37' W 003°32'1515.0
2016-Jun-18 10:33N 58°52' W 003°28'8 8.2
2016-Jun-18 09:33N 58°58' W 003°18'7 7.0
2016-Jun-18 08:33N 58°53' W 003°27'1616.5
2016-Jun-18 07:33N 58°37' W 003°32'6 6.3
2016-Jun-18 06:33N 58°43' W 003°30'1616.0
2016-Jun-18 05:33N 58°58' W 003°18'0 0.3
2016-Jun-18 04:29N 58°58' W 003°18'0 0.0
2016-Jun-18 03:29N 58°58' W 003°18'0 0.0
2016-Jun-18 02:29N 58°58' W 003°18'0 0.0
2016-Jun-18 01:29N 58°58' W 003°18'0 0.0
2016-Jun-18 00:29N 58°58' W 003°18'0 0.0
2016-Jun-17 23:29N 58°58' W 003°18'0 0.0
2016-Jun-17 22:29N 58°58' W 003°18'0 0.0
2016-Jun-17 21:29N 58°58' W 003°18'0 0.0
2016-Jun-17 20:33N 58°58' W 003°18'0 0.0
2016-Jun-17 19:32N 58°58' W 003°18'1312.8
2016-Jun-17 18:33N 58°47' W 003°29'1010.2
2016-Jun-17 17:33N 58°37' W 003°32'1010.5
2016-Jun-17 16:33N 58°47' W 003°29'1212.4
2016-Jun-17 15:33N 58°58' W 003°18'0 0.0
2016-Jun-17 14:34N 58°58' W 003°18'1 1.0
2016-Jun-17 13:34N 58°57' W 003°18'1616.3
2016-Jun-17 12:33N 58°42' W 003°31'5 5.2
2016-Jun-17 11:33N 58°37' W 003°32'1413.8
2016-Jun-17 10:33N 58°50' W 003°29'9 9.4
2016-Jun-17 09:33N 58°58' W 003°18'7 7.0
2016-Jun-17 08:33N 58°53' W 003°27'1616.5
2016-Jun-17 07:33N 58°37' W 003°32'5 4.8
2016-Jun-17 06:33N 58°41' W 003°31'1716.8
2016-Jun-17 05:33N 58°57' W 003°18'  

Dump ship's entire track history